»·PEaware :: N7119M KSBP-KBFL

N7119M :: KSBP-KBFL

FLIGHT INFORMATION

Flight Status: Arrived
Operator: Privately registered:
United States
More flights under this callsign
Pilot: Steve M. (17666)
Aircraft: CESSNA 172 SKYHAWK
(C172)
More flights by this aircraft type
Origin: KSBP San Luis Co Regl
United States
Destination: KBFL Meadows
United States
More flights between these airports :: More routes between these airports
Route: +
File this flight plan on PilotEdge
Remarks: cat5
Altitude:
(Current/Filed)
0ft
Speed:
(Current/Filed)
0kts
Departed: 12-Jan-18 07:18 PM
Arrived: 12-Jan-18 08:06 PM
Distance/Time
Traveled:
79nm/0:48
Distance/Time
To Go:
Arrived

Flight Plot

Page will automatically refresh every two minutes.


Map Options




Map Legend


Flown Route
Filed Route
Departure Airport
Arrival Airport
Navaid (VOR, NDB)
Fix

Horizontal Profiles

Position Reports

Time Latitude Longitude Heading Altitude Ground
Speed
12-Jan-18 19:23 34.923245 -120.390179 58 4606ft 73kts
12-Jan-18 19:24 34.931225 -120.365955 55 5146ft 76kts
12-Jan-18 19:25 34.939256 -120.343779 53 5794ft 68kts
12-Jan-18 19:26 34.946957 -120.323660 50 6475ft 64kts
12-Jan-18 19:27 34.954516 -120.304235 50 7161ft 62kts
12-Jan-18 19:28 34.962753 -120.283653 55 7503ft 93kts
12-Jan-18 19:29 34.973533 -120.254491 55 7487ft 93kts
12-Jan-18 19:30 34.984401 -120.226004 55 7485ft 93kts
12-Jan-18 19:31 34.995562 -120.197121 54 7482ft 94kts
12-Jan-18 19:32 35.006831 -120.168016 55 7478ft 95kts
12-Jan-18 19:33 35.018288 -120.138502 55 7475ft 98kts
12-Jan-18 19:34 35.030180 -120.107813 55 7472ft 101kts
12-Jan-18 19:35 35.042264 -120.076565 56 7469ft 102kts
12-Jan-18 19:36 35.054448 -120.045081 56 7467ft 103kts
12-Jan-18 19:37 35.066766 -120.013214 56 7465ft 104kts
12-Jan-18 19:38 35.079083 -119.981315 56 7465ft 104kts
12-Jan-18 19:39 35.091737 -119.948627 56 7466ft 109kts
12-Jan-18 19:40 35.104296 -119.916034 56 7469ft 110kts
12-Jan-18 19:41 35.115165 -119.887832 57 7469ft 110kts
12-Jan-18 19:42 35.130272 -119.848570 57 7468ft 110kts
12-Jan-18 19:43 35.141159 -119.820244 57 7467ft 111kts
12-Jan-18 19:44 35.156023 -119.781561 57 7464ft 112kts
12-Jan-18 19:45 35.167052 -119.752808 57 7464ft 112kts
12-Jan-18 19:46 35.182446 -119.712631 57 7491ft 111kts
12-Jan-18 19:47 35.193366 -119.684110 57 7511ft 111kts
12-Jan-18 19:48 35.208792 -119.643819 58 7395ft 116kts
12-Jan-18 19:49 35.219664 -119.615264 58 7411ft 110kts
12-Jan-18 19:50 35.233009 -119.582255 55 7435ft 108kts
12-Jan-18 19:51 35.246247 -119.549222 57 7455ft 108kts
12-Jan-18 19:52 35.258886 -119.516143 58 7394ft 106kts
12-Jan-18 19:53 35.269983 -119.486878 58 6858ft 108kts
12-Jan-18 19:54 35.280965 -119.458132 58 6665ft 103kts
12-Jan-18 19:55 35.291077 -119.431575 58 6665ft 104kts
12-Jan-18 19:56 35.302085 -119.402309 59 6108ft 103kts
12-Jan-18 19:57 35.313728 -119.371636 60 4967ft 102kts
12-Jan-18 19:58 35.325738 -119.339879 62 3566ft 105kts
12-Jan-18 19:59 35.337357 -119.309366 61 2994ft 95kts
12-Jan-18 20:00 35.348642 -119.279626 62 2995ft 98kts
12-Jan-18 20:01 35.359459 -119.251002 65 2683ft 113kts
12-Jan-18 20:02 35.371251 -119.219734 64 2657ft 97kts
12-Jan-18 20:03 35.382103 -119.191017 65 2657ft 97kts
12-Jan-18 20:04 35.391903 -119.164982 64 2836ft 76kts
12-Jan-18 20:05 35.402163 -119.137926 64 2957ft 102kts
12-Jan-18 20:06 35.413778 -119.106632 65 2116ft 106kts
12-Jan-18 20:07 35.414684 -119.079805 138 1497ft 93kts
12-Jan-18 20:08 35.397958 -119.061530 137 1571ft 93kts
12-Jan-18 20:09 35.396906 -119.038788 56 1629ft 88kts
12-Jan-18 20:10 35.412982 -119.027827 305 1511ft 58kts
12-Jan-18 20:11 35.424286 -119.044471 314 768ft 63kts
12-Jan-18 20:12 35.435019 -119.057585 322 488ft 32kts
12-Jan-18 20:13 35.436320 -119.057651 68 493ft 2kts
12-Jan-18 20:14 35.435346 -119.055775 134 492ft 4kts
12-Jan-18 20:15 35.433672 -119.053790 140 492ft 16kts
12-Jan-18 20:16 35.433347 -119.051751 336 499ft 6kts
12-Jan-18 20:17 35.434663 -119.052539 294 500ft 0kts
12-Jan-18 20:18 35.434663 -119.052539 294 500ft 0kts
12-Jan-18 20:19 35.434663 -119.052539 294 500ft 0kts
12-Jan-18 20:20 35.434663 -119.052539 294 500ft 0kts
12-Jan-18 20:21 35.434663 -119.052539 294 500ft 0kts
12-Jan-18 20:22 35.434663 -119.052539 294 500ft 0kts
12-Jan-18 20:23 35.434663 -119.052539 294 500ft 0kts
12-Jan-18 20:24 35.434663 -119.052539 294 500ft 0kts
12-Jan-18 20:25 35.434663 -119.052539 294 500ft 0kts
12-Jan-18 20:26 35.434663 -119.052539 294 500ft 0kts

Navigation Log

Ident Type
1. KSBP Airport
2. KBFL Airport